Flint, MI (48553)

8:37 AM EST on November 23, 2014 (GMT -0500)
Dave Grand Blanc | Change Station
CLOSE
Current Station
Personal Weather Station
Location: Grand Blanc, MI
Elevation: 797 ft
Nearby Weather Stations

Elev 797 ft 42.95 °N, 83.67 °W | Updated 4 seconds ago

Overcast
Overcast
47.9 °F
Feels Like 45 °F
N
7.2
Wind Variable Wind from SW
Gusts 9.2 mph

Today
High -- | Low -- °F
--% Chance of Precip.
Yesterday
High -- | Low -- °F
Precip. -- in
7:37 AM 5:05 PM
New Moon, 1% visible
Pressure 29.90 in
Visibility 7.0 miles
Clouds Overcast 4700 ft
Windchill 45 °F
Dew Point 44 °F
Humidity 85%
Rainfall 0.00 in
Snow Depth Not available.
UV 0 out of 12
Pollen .10 out of 12
Air Quality Not available.
Flu Activity Not available.
METAR KFNT 231253Z 19006KT 7SM OVC047 09/07 A2988 RMK AO2 SLP123 T00940067

More Conditions Fewer Conditions

Pressure 29.90 in
Visibility 7.0 miles
Clouds Overcast 4700 ft
Windchill 45 °F
Dew Point 44 °F
Humidity 85%
Rainfall 0.00 in
Snow Depth Not available.
UV 0 out of 12
Pollen .10 out of 12
Air Quality Not available.
Flu Activity Not available.
METAR KFNT 231253Z 19006KT 7SM OVC047 09/07 A2988 RMK AO2 SLP123 T00940067

More Conditions Fewer Conditions

10-Day Weather Forecast

Almanac

Astronomy

Nov. 23, 2014 Rise Set
Actual Time
Civil Twilight
Nautical Twilight
Astronomical Twilight
Moon
Length of Visible Light
Length of Day
Tomorrow will be .
, % of the Moon is Illuminated

Today's Extremes

State Highs State Lows

Community

WunderPhotos

Upload Photos

1,773,057 photos uploaded!

WunderBlogs® & News

Nearby

Air Quality

  Air Quality AQ Index Pollutant
Not available.

Snow Depth

Station Depth Elevation

Earthquake Activity

City Distance Mag. Time & Date
Minimum magnitude displayed is 2.5.

Coastal Water Temperatures

Place Temperature

Nearby Weather Stations